createdAt,value
2019-06-20T00:01:15.918Z,4
2019-06-20T00:06:18.358Z,4
2019-06-20T00:11:20.899Z,4
2019-06-20T00:16:23.238Z,4
2019-06-20T00:21:25.694Z,3
2019-06-20T00:26:28.118Z,3
2019-06-20T00:31:30.564Z,3
2019-06-20T00:36:33.004Z,3
2019-06-20T00:41:35.478Z,3
2019-06-20T00:46:37.927Z,4
2019-06-20T00:51:40.347Z,4
2019-06-20T00:56:42.777Z,3
2019-06-20T01:01:45.220Z,4
2019-06-20T01:06:47.652Z,3
2019-06-20T01:11:50.076Z,4
2019-06-20T01:16:52.588Z,4
2019-06-20T01:21:55.049Z,4
2019-06-20T01:26:57.426Z,4
2019-06-20T01:31:59.861Z,3
2019-06-20T01:37:02.291Z,4
2019-06-20T01:47:07.173Z,4
2019-06-20T01:52:09.651Z,3
2019-06-20T01:57:12.074Z,3
2019-06-20T02:02:14.496Z,3
2019-06-20T02:07:17.011Z,4
2019-06-20T02:12:19.371Z,3
2019-06-20T02:17:21.933Z,4
2019-06-20T02:22:24.253Z,3
2019-06-20T02:27:26.754Z,3
2019-06-20T02:32:29.201Z,3
2019-06-20T02:37:31.607Z,4
2019-06-20T02:42:34.027Z,4
2019-06-20T02:47:36.457Z,4
2019-06-20T02:52:38.911Z,4
2019-06-20T02:57:41.358Z,5
2019-06-20T03:02:43.785Z,4
2019-06-20T03:07:46.228Z,4
2019-06-20T03:12:49.141Z,4
2019-06-20T03:17:51.172Z,5
2019-06-20T03:22:53.756Z,5
2019-06-20T03:27:55.998Z,5
2019-06-20T03:32:58.451Z,4
2019-06-20T03:38:00.886Z,5
2019-06-20T03:43:03.302Z,4
2019-06-20T03:48:05.903Z,5
2019-06-20T03:53:08.202Z,4
2019-06-20T03:58:10.646Z,5
2019-06-20T04:03:13.095Z,4
2019-06-20T04:08:15.508Z,8
2019-06-20T04:13:17.952Z,7
2019-06-20T04:18:20.399Z,6
2019-06-20T04:23:22.829Z,4
2019-06-20T04:28:25.269Z,5
2019-06-20T04:33:27.768Z,4
2019-06-20T04:38:30.152Z,5
2019-06-20T04:43:32.628Z,4
2019-06-20T04:53:37.502Z,3
2019-06-20T04:58:39.917Z,2
2019-06-20T05:03:42.361Z,2
2019-06-20T05:08:44.905Z,2
2019-06-20T05:13:47.308Z,2
2019-06-20T05:18:49.762Z,2
2019-06-20T05:23:52.121Z,3
2019-06-20T05:28:54.568Z,2
2019-06-20T05:33:57.017Z,2
2019-06-20T05:38:59.563Z,2
2019-06-20T05:44:01.925Z,2
2019-06-20T05:49:04.481Z,2
2019-06-20T05:54:06.770Z,3
2019-06-20T05:59:09.222Z,2
2019-06-20T06:04:11.654Z,3
2019-06-20T06:09:14.108Z,3
2019-06-20T06:14:16.540Z,2
2019-06-20T06:19:18.990Z,2
2019-06-20T06:24:21.459Z,3
2019-06-20T06:29:23.890Z,3
2019-06-20T06:34:26.304Z,3
2019-06-20T06:39:28.740Z,3
2019-06-20T06:44:31.835Z,3
2019-06-20T06:49:33.676Z,3
2019-06-20T06:54:36.241Z,3
2019-06-20T06:59:38.505Z,3
2019-06-20T07:04:40.989Z,3
2019-06-20T07:09:43.418Z,2
2019-06-20T07:14:45.830Z,2
2019-06-20T07:19:48.295Z,2
2019-06-20T07:24:50.710Z,2
2019-06-20T07:29:53.289Z,3
2019-06-20T07:34:55.809Z,2
2019-06-20T07:39:58.075Z,2
2019-06-20T07:45:00.543Z,3
2019-06-20T07:50:02.955Z,2
2019-06-20T07:55:05.364Z,2
2019-06-20T08:00:07.846Z,2
2019-06-20T08:05:10.279Z,3
2019-06-20T08:10:12.768Z,2
2019-06-20T08:15:16.052Z,2
2019-06-20T08:20:17.724Z,3
2019-06-20T08:25:20.012Z,3
2019-06-20T08:30:22.536Z,2
2019-06-20T08:35:24.922Z,2
2019-06-20T08:40:27.425Z,2
2019-06-20T08:45:29.804Z,3
2019-06-20T08:50:32.276Z,2
2019-06-20T08:55:34.663Z,2
2019-06-20T09:00:37.197Z,2
2019-06-20T09:05:39.614Z,1
2019-06-20T09:10:42.011Z,2
2019-06-20T09:15:44.446Z,3
2019-06-20T09:20:46.956Z,2
2019-06-20T09:25:49.389Z,2
2019-06-20T09:30:52.244Z,3
2019-06-20T09:35:55.481Z,4
2019-06-20T09:40:56.883Z,4
2019-06-20T09:45:59.138Z,2
2019-06-20T09:51:01.629Z,3
2019-06-20T09:56:03.969Z,3
2019-06-20T10:01:06.455Z,4
2019-06-20T10:06:13.626Z,4
2019-06-20T10:11:11.414Z,4
2019-06-20T10:16:13.767Z,3
2019-06-20T10:21:16.199Z,2
2019-06-20T10:26:18.792Z,3
2019-06-20T10:31:21.219Z,3
2019-06-20T10:36:23.556Z,4
2019-06-20T10:41:25.966Z,2
2019-06-20T10:46:28.440Z,3
2019-06-20T10:51:30.980Z,2
2019-06-20T10:56:33.260Z,2
2019-06-20T11:01:35.723Z,2
2019-06-20T11:06:39.869Z,2
2019-06-20T11:11:41.710Z,1
2019-06-20T11:16:43.554Z,2
2019-06-20T11:21:45.743Z,1
2019-06-20T11:26:48.019Z,2
2019-06-20T11:31:50.390Z,2
2019-06-20T11:36:52.907Z,2
2019-06-20T11:41:55.245Z,2
2019-06-20T11:46:57.698Z,2
2019-06-20T11:52:00.202Z,2
2019-06-20T11:57:02.624Z,2
2019-06-20T12:02:05.153Z,2
2019-06-20T12:07:07.500Z,3
2019-06-20T12:12:10.054Z,3
2019-06-20T12:17:12.491Z,4
2019-06-20T12:22:14.847Z,5
2019-06-20T12:27:17.226Z,2
2019-06-20T12:32:19.773Z,1
2019-06-20T12:37:22.113Z,1
2019-06-20T12:42:24.753Z,1
2019-06-20T12:47:27.006Z,2
2019-06-20T12:52:29.467Z,2
2019-06-20T12:57:31.905Z,2
2019-06-20T13:02:34.343Z,1
2019-06-20T13:07:38.557Z,1
2019-06-20T13:12:40.632Z,1
2019-06-20T13:17:43.094Z,3
2019-06-20T13:22:44.765Z,1
2019-06-20T13:27:47.770Z,1
2019-06-20T13:32:49.380Z,1
2019-06-20T13:37:51.710Z,1
2019-06-20T13:42:54.781Z,1
2019-06-20T13:47:56.339Z,1
2019-06-20T13:52:58.761Z,1
2019-06-20T13:58:01.300Z,1
2019-06-20T14:03:03.712Z,1
2019-06-20T14:08:06.199Z,1
2019-06-20T14:13:18.545Z,1
2019-06-20T14:18:10.986Z,1
2019-06-20T14:23:13.387Z,1
2019-06-20T14:28:16.042Z,2
2019-06-20T14:33:18.275Z,2
2019-06-20T14:38:20.719Z,1
2019-06-20T14:43:23.277Z,2
2019-06-20T14:48:25.799Z,1
2019-06-20T14:53:28.105Z,2
2019-06-20T14:58:30.549Z,2
2019-06-20T15:03:33.019Z,2
2019-06-20T15:08:35.383Z,2
2019-06-20T15:18:40.259Z,1
2019-06-20T15:23:42.686Z,2
2019-06-20T15:28:46.175Z,1
2019-06-20T15:33:49.180Z,1
2019-06-20T15:38:51.046Z,1
2019-06-20T15:43:53.725Z,1
2019-06-20T15:48:54.943Z,1
2019-06-20T15:53:57.348Z,1
2019-06-20T15:58:59.829Z,2
2019-06-20T16:04:02.322Z,1
2019-06-20T16:09:07.649Z,1
2019-06-20T16:14:07.131Z,1
2019-06-20T16:19:09.642Z,1
2019-06-20T16:24:12.769Z,1
2019-06-20T16:29:14.441Z,1
2019-06-20T16:34:17.022Z,1
2019-06-20T16:39:19.329Z,1
2019-06-20T16:44:21.954Z,1
2019-06-20T16:49:24.259Z,1
2019-06-20T16:54:26.661Z,1
2019-06-20T16:59:29.122Z,1
2019-06-20T17:09:33.972Z,1
2019-06-20T17:14:36.438Z,1
2019-06-20T17:19:42.032Z,1
2019-06-20T17:24:41.305Z,1
2019-06-20T17:29:43.738Z,1
2019-06-20T17:34:46.261Z,1
2019-06-20T17:39:48.652Z,1
2019-06-20T17:44:51.103Z,1
2019-06-20T17:49:53.587Z,1
2019-06-20T17:54:55.992Z,1
2019-06-20T17:59:58.384Z,1
2019-06-20T18:05:00.891Z,1
2019-06-20T18:10:03.276Z,1
2019-06-20T18:15:05.736Z,1
2019-06-20T18:20:08.166Z,1
2019-06-20T18:25:10.627Z,1
2019-06-20T18:30:13.117Z,1
2019-06-20T18:35:15.490Z,1
2019-06-20T18:40:17.930Z,1
2019-06-20T18:45:20.423Z,1
2019-06-20T18:50:22.893Z,1
2019-06-20T18:55:25.253Z,5
2019-06-20T19:00:34.425Z,4
2019-06-20T19:05:30.207Z,4
2019-06-20T19:10:33.722Z,4
2019-06-20T19:15:35.077Z,3
2019-06-20T19:20:37.472Z,4
2019-06-20T19:25:40.008Z,3
2019-06-20T19:30:42.386Z,3
2019-06-20T19:35:44.793Z,3
2019-06-20T19:40:47.267Z,3
2019-06-20T19:45:49.745Z,3
2019-06-20T19:50:52.122Z,3
2019-06-20T20:00:57.000Z,4
2019-06-20T20:05:59.500Z,4
2019-06-20T20:11:01.895Z,3
2019-06-20T20:16:04.335Z,4
2019-06-20T20:21:06.787Z,4
2019-06-20T20:26:09.199Z,3
2019-06-20T20:31:11.660Z,3
2019-06-20T20:36:24.235Z,3
2019-06-20T20:41:16.628Z,3
2019-06-20T20:46:18.972Z,3
2019-06-20T20:51:21.432Z,2
2019-06-20T20:56:23.871Z,2
2019-06-20T21:01:26.334Z,3
2019-06-20T21:06:28.745Z,2
2019-06-20T21:11:31.222Z,3
2019-06-20T21:16:33.876Z,2
2019-06-20T21:21:36.096Z,3
2019-06-20T21:26:48.710Z,2
2019-06-20T21:31:40.978Z,3
2019-06-20T21:36:43.432Z,3
2019-06-20T21:41:45.911Z,3
2019-06-20T21:46:48.267Z,3
2019-06-20T21:51:50.808Z,3
2019-06-20T21:56:53.158Z,3
2019-06-20T22:01:55.629Z,3
2019-06-20T22:06:58.090Z,3
2019-06-20T22:12:00.494Z,3
2019-06-20T22:17:02.926Z,2
2019-06-20T22:22:05.376Z,3
2019-06-20T22:27:07.817Z,3
2019-06-20T22:32:10.245Z,2
2019-06-20T22:37:12.686Z,2
2019-06-20T22:42:15.242Z,2
2019-06-20T22:47:17.560Z,2
2019-06-20T22:52:20.183Z,2
2019-06-20T22:57:22.455Z,2
2019-06-20T23:02:24.953Z,2
2019-06-20T23:07:27.469Z,2
2019-06-20T23:12:29.890Z,2
2019-06-20T23:17:32.227Z,2
2019-06-20T23:27:37.097Z,2
2019-06-20T23:32:39.543Z,2
2019-06-20T23:37:41.992Z,2
2019-06-20T23:42:44.437Z,2
2019-06-20T23:47:46.881Z,1
2019-06-20T23:52:49.287Z,2
2019-06-20T23:57:51.745Z,2
